• Join FlightAware (Why Join?)
  • Login
  • US Flag 
04:45AM EDT


 

Airport Tracker/Info


-or-


 

Live Flight TrackerFlight Track Log ✈ SWA650 ✈ 14-Sep-2013 ✈ KMDW - KPVD

Flight Track Log - Related Links

Times and Time Zones

All times are in EDT time to prevent confusion due to time zone crossing. See the SWA650 flight status page for this flight to view local times or setup timezone preferences in your user account.

Time Position Orientation Groundspeed Altitude Reporting Facility
EDT Latitude Longitude Course Direction KTS MPH feet Rate Location/Type
09:45PM 41.7500 -87.7500 90° East 189 217 2,600  Level Chicago TRACON
09:47PM 41.7728 -87.6547 72° East 250 288 5,600 2,880 Climbing Chicago Center
09:48PM 41.7697 -87.5472 92° East 285 328 9,000 3,120 Climbing Chicago Center
09:49PM 41.7683 -87.4339 91° East 298 343 12,000 2,400 Climbing Chicago Center
09:50PM 41.7683 -87.3092 90° East 325 374 13,900 2,160 Climbing Chicago Center
09:51PM 41.8633 -86.5043 90° East  Level Estimated
09:51PM 41.7831 -87.1667 82° East 381 438 16,400  Level Chicago Center
09:52PM 41.7972 -87.0219 82° East 390 449 18,900 2,280 Climbing Chicago Center
09:53PM 41.8117 -86.8722 83° East 402 463 21,000 1,920 Climbing Chicago Center
09:54PM 41.8264 -86.7139 83° East 421 484 22,800 1,860 Climbing Chicago Center
09:55PM 41.8400 -86.5453 84° East 446 513 24,800 1,740 Climbing Chicago Center
09:56PM 41.8628 -86.3806 79° East 449 517 26,400 1,620 Climbing Chicago Center
09:57PM 41.9100 -86.2181 69° East 464 534 28,100 1,620 Climbing Chicago Center
09:58PM 41.9556 -86.0547 69° East 466 536 29,700 1,440 Climbing Chicago Center
09:59PM 42.0033 -85.8900 69° East 470 541 31,100 1,440 Climbing Chicago Center
10:00PM 42.0194 -85.6889 84° East 485 558 32,700 1,380 Climbing Chicago Center
10:01PM 42.0286 -85.5089 86° East 487 560 34,000 1,200 Climbing Chicago Center
10:02PM 42.0389 -85.3300 86° East 484 557 35,200 1,140 Climbing Chicago Center
10:03PM 42.0478 -85.1483 86° East 489 563 36,400 1,080 Climbing Chicago Center
10:04PM 42.0581 -84.9700 86° East 486 559 37,400 840 Climbing Chicago Center
10:05PM 42.0656 -84.7914 87° East 483 556 38,100 540 Climbing Chicago Center
10:06PM 42.0786 -84.6144 84° East 479 551 38,600 420 Climbing Chicago Center
10:07PM 42.0964 -84.4344 82° East 482 555 39,000 180 Climbing Chicago Center
10:08PM 42.1081 -84.2981 83° East 485 558 39,000  Level Cleveland Center
10:09PM 42.1203 -84.1347 84° East 485 558 39,000  Level Cleveland Center
10:10PM 42.1381 -83.9203 84° East 482 555 39,000  Level Cleveland Center
10:11PM 42.1525 -83.7419 84° East 483 556 39,000  Level Cleveland Center
10:12PM 42.1658 -83.5686 84° East 479 551 39,000  Level Cleveland Center
10:13PM 42.1803 -83.3956 84° East 476 548 39,000  Level Cleveland Center
10:14PM 42.1928 -83.2189 84° East 470 541 39,000  Level Cleveland Center
10:15PM 42.2061 -83.0592 84° East 461 531 39,000  Level Cleveland Center
10:16PM 42.2186 -82.8889 84° East 460 529 39,000  Level Cleveland Center
10:17PM 42.2322 -82.7175 84° East 461 531 39,000  Level Cleveland Center
10:18PM 42.2442 -82.5456 85° East 461 531 39,000  Level Cleveland Center
10:19PM 42.2556 -82.3753 85° East 459 528 39,000  Level Cleveland Center
10:20PM 42.2675 -82.2031 85° East 461 531 39,000  Level Cleveland Center
10:21PM 42.2811 -82.0039 85° East 462 532 39,000  Level Cleveland Center
10:22PM 42.2919 -81.8286 85° East 464 534 39,000  Level Cleveland Center
10:23PM 42.3033 -81.6542 85° East 463 533 39,000  Level Cleveland Center
10:24PM 42.3147 -81.4772 85° East 465 535 39,000  Level Cleveland Center
10:25PM 42.3253 -81.3003 85° East 467 537 39,000  Level Cleveland Center
10:26PM 42.3356 -81.1236 85° East 466 536 39,000  Level Cleveland Center
10:27PM 42.3461 -80.9472 85° East 466 536 39,000  Level Cleveland Center
10:28PM 42.3561 -80.7733 85° East 461 531 39,000  Level Cleveland Center
10:29PM 42.3653 -80.6000 86° East 458 527 39,000  Level Cleveland Center
10:30PM 42.3753 -80.4258 85° East 460 529 39,000  Level Cleveland Center
10:31PM 42.3847 -80.2506 86° East 463 533 39,000  Level Cleveland Center
10:32PM 42.3931 -80.0764 86° East 461 531 39,000  Level Cleveland Center
10:33PM 42.4011 -79.9036 86° East 463 533 39,000  Level Cleveland Center
10:34PM 42.4094 -79.7306 86° East 464 534 39,000  Level Cleveland Center
10:35PM 42.4178 -79.5558 86° East 467 537 39,000  Level Cleveland Center
10:36PM 42.4253 -79.3808 87° East 468 539 39,000  Level Cleveland Center
10:37PM 42.4328 -79.2044 87° East 473 544 39,000  Level Cleveland Center
10:38PM 42.4394 -79.0283 87° East 471 542 39,000  Level Cleveland Center
10:39PM 42.4469 -78.8467 87° East 470 541 39,000  Level Cleveland Center
10:40PM 42.4539 -78.6689 87° East 475 547 39,000  Level Cleveland Center
10:41PM 42.4597 -78.4931 87° East 470 541 39,000  Level Cleveland Center
10:42PM 42.4661 -78.3131 87° East 476 548 39,000  Level Cleveland Center
10:43PM 42.4714 -78.1378 88° East 472 543 39,000  Level Cleveland Center
10:44PM 42.4700 -77.9608 91° East 473 544 39,000  Level Cleveland Center
10:45PM 42.4656 -77.7861 92° East 476 548 39,000  Level Cleveland Center
10:46PM 42.4611 -77.6069 92° East 477 549 39,000  Level Cleveland Center
10:47PM 42.4564 -77.3986 92° East 476 548 39,000  Level Cleveland Center
10:48PM 42.4522 -77.2222 92° East 475 547 39,000  Level Cleveland Center
10:49PM 42.4467 -77.0453 92° East 474 545 39,000  Level Cleveland Center
10:50PM 42.4419 -76.8692 92° East 471 542 39,000  Level Cleveland Center
10:51PM 42.4400 -76.7903 92° East 475 547 39,000  Level Boston Center
10:52PM 42.4342 -76.6153 93° East 475 547 39,000  Level Boston Center
10:53PM 42.4281 -76.4375 93° East 470 541 39,000  Level Boston Center
10:54PM 42.4214 -76.2656 93° East 464 534 39,000  Level Boston Center
10:55PM 42.4167 -76.0964 92° East 464 534 39,000  Level Boston Center
10:56PM 42.4094 -75.9217 93° East 458 527 39,000  Level Boston Center
10:57PM 42.4022 -75.7525 93° East 463 533 39,000  Level Boston Center
10:58PM 42.3967 -75.5806 92° East 457 526 39,000  Level Boston Center
10:59PM 42.3886 -75.4086 94° East 457 526 39,000  Level Boston Center
11:00PM 42.3806 -75.2342 94° East 463 533 39,000 -780 Level Boston Center
11:01PM 42.3742 -75.0622 93° East 463 533 37,500 -1,980 Descending Boston Center
11:02PM 42.3636 -74.8903 95° East 463 533 35,100 -2,220 Descending Boston Center
11:03PM 42.3586 -74.7217 92° East 463 533 33,100 -2,040 Descending Boston Center
11:04PM 42.3494 -74.5583 94° East 458 527 31,100 -2,040 Descending Boston Center
11:05PM 42.3422 -74.3811 93° East 437 503 29,100 -1,320 Descending Boston Center
11:06PM 42.3322 -74.2236 95° East 427 491 28,500 -780 Descending Boston Center
11:07PM 42.3242 -74.0661 94° East 422 486 27,600 -960 Descending Boston Center
11:08PM 42.3158 -73.9114 94° East 422 486 26,600 -1,020 Descending Boston Center
11:09PM 42.3072 -73.7594 94° East 416 479 25,600 -1,080 Descending Boston Center
11:10PM 42.3006 -73.6022 93° East 421 484 24,500 -1,140 Descending Boston Center
11:11PM 42.2917 -73.4533 95° East 409 471 23,400 -960 Descending Boston Center
11:12PM 42.2803 -73.3297 97° East 397 457 22,600 -960 Descending Boston Center
11:13PM 42.2708 -73.1892 95° East 382 440 21,600 -1,860 Descending Boston Center
11:14PM 42.2069 -73.0483 121° Southeast 375 432 19,000 -1,320 Descending Boston Center
11:15PM 42.1450 -72.9497 130° Southeast 380 437 19,000  Level Boston Center
11:16PM 42.0767 -72.8400 130° Southeast 386 444 19,000  Level Boston Center
11:17PM 42.0103 -72.7306 129° Southeast 386 444 19,000  Level Boston Center
11:18PM 41.9356 -72.6103 130° Southeast 386 444 19,000 -360 Level Boston Center
11:18PM 41.9003 -72.5489 128° Southeast 372 428 18,500 -1,020 Descending Boston Center
11:18PM 41.8939 -72.5406 136° Southeast 370 426 18,400 -1,440 Descending Boston Center
11:19PM 41.8711 -72.5042 130° Southeast 380 437 17,800 -1,500 Descending Boston Center
11:19PM 41.8272 -72.4317 129° Southeast 361 415 16,700 -1,560 Descending Boston Center
11:20PM 41.8086 -72.4039 132° Southeast 365 420 16,300 -1,800 Descending Boston Center
11:20PM 41.7564 -72.3233 131° Southeast 358 412 14,900 -1,860 Descending Boston Center
11:21PM 41.7439 -72.3011 127° Southeast 357 411 14,500 -1,560 Descending Boston Center
11:21PM 41.7042 -72.2344 129° Southeast 350 403 13,500 -1,440 Descending Boston Center
11:22PM 41.6853 -72.2011 127° Southeast 357 411 13,000 -1,740 Descending Boston Center
11:22PM 41.6414 -72.1344 131° Southeast 339 390 11,800 -1,740 Descending Boston Center
11:23PM 41.6247 -72.1069 129° Southeast 341 392 11,300 -1,020 Descending Boston Center
11:23PM 41.5828 -72.0433 131° Southeast 312 359 10,800 -840 Descending Boston Center
11:24PM 41.5744 -72.0239 120° Southeast 331 381 10,500 -1,500 Descending Boston Center
11:24PM 41.5428 -71.9436 118° Southeast 310 357 9,300 -1,380 Descending Boston Center
11:25PM 41.5467 -71.9103 81° East 312 359 9,100 -1,500 Descending Boston Center
11:25PM 41.5444 -71.8356 92° East 289 333 7,800 -1,680 Descending Boston Center
11:26PM 41.5464 -71.8161 82° East 286 329 7,500 -1,020 Descending Boston Center
11:26PM 41.5458 -71.7328 90° East 260 299 6,800 -1,440 Descending Boston Center
11:27PM 41.5450 -71.6275 91° East 256 295 4,900 -1,560 Descending Boston Center
11:28PM 41.5736 -71.5522 63° Northeast 234 269 3,600 -1,140 Descending Boston Center
11:29PM 41.6214 -71.5153 30° Northeast 170 196 2,700 -1,080 Descending Boston Center
11:30PM 41.6544 -71.4844 35° Northeast 142 163 1,400 -1,080 Descending Boston Center
11:31PM 41.6897 -71.4561 31° Northeast 138 159 600 -840 Descending Boston Center
11:33PM 41.7167 -71.4167 37° Northeast  Level FlightAware Approximate
11:40PM 41.7240 -71.4282 37° Northeast  Level Estimated
11:41PM 41.7240 -71.4282 37° Northeast  Level Estimated